Eagle Creek, Oregon
Current Conditions -  °F | °C
As of 1:53 PM on Friday 31 Oct 2014 (Local Time) from KTTD Reporting Station
Overcast Overcast  
Wind Chill: 57°   Ceiling: 2100
Heat Index: 57°   Visibility: 10mi
Dew Point: 50°   Wind: 5mph
Humidity: 77%   Direction: NA
Pressure: 29.84"   Gusts: NA
Location:  45.36°N, 122.36°W
Report Text: KTTD 312053Z VRB04KT 10SM BKN021 BKN026 OVC032 14/10 A2984 RMK AO2 RAB12E24 SLP104 P0000 60000 T01390100 58001
Loading
Personal Weather Stations






























Interactive Weather Map
Tropical Storm Tracking
New forecast layout! Learn more

10-Day Weather Forecast

Advertisements
Track Severe Weather on mobile